Time;durP1;ratioP1;P1;durP2;ratioP2;P2;SDS_P1;SDS_P2;PMS_P1;PMS_P2;Temp;Humidity;BMP_temperature;BMP_pressure;BME280_temperature;BME280_humidity;BME280_pressure;Samples;Min_cycle;Max_cycle;Signal;HPM_P1;HPM_P2
2024/01/19 00:01:57;;;;;;;45.17;26.73;;;;;;;-0.81;75.02;100413.34;4085240;29;20048;-65
2024/01/19 00:04:00;;;;;;;40.15;24.92;;;;;;;-0.86;74.66;100409.66;4092869;29;20150;-65
2024/01/19 00:06:04;;;;;;;46.30;25.88;;;;;;;-0.89;75.21;100414.56;4094703;29;20134;-64
2024/01/19 00:08:08;;;;;;;42.50;26.10;;;;;;;-0.84;74.90;100419.94;4094348;28;20042;-64
2024/01/19 00:10:10;;;;;;;44.08;26.75;;;;;;;-0.84;75.25;100425.06;4091179;28;20048;-65
2024/01/19 00:12:13;;;;;;;37.45;23.90;;;;;;;-0.84;75.43;100417.41;4087309;29;20502;-65
2024/01/19 00:14:16;;;;;;;43.78;25.30;;;;;;;-0.84;74.81;100430.16;4088911;29;20043;-65
2024/01/19 00:16:19;;;;;;;38.50;21.50;;;;;;;-0.78;74.59;100425.41;4092517;29;20031;-64
2024/01/19 00:18:24;;;;;;;39.58;20.77;;;;;;;-0.73;74.61;100429.09;4093219;29;20046;-64
2024/01/19 00:20:28;;;;;;;37.20;21.20;;;;;;;-0.73;74.40;100431.66;4094187;29;20147;-64
2024/01/19 00:22:30;;;;;;;36.65;22.08;;;;;;;-0.70;74.89;100424.19;4089875;29;20046;-64
2024/01/19 00:24:35;;;;;;;39.92;23.73;;;;;;;-0.70;74.40;100426.75;4079130;29;20074;-64
2024/01/19 00:26:38;;;;;;;38.50;23.90;;;;;;;-0.69;75.38;100435.28;4083736;29;20036;-64
2024/01/19 00:28:40;;;;;;;40.45;24.33;;;;;;;-0.68;75.40;100442.16;4085972;29;20036;-64
2024/01/19 00:30:44;;;;;;;40.97;23.98;;;;;;;-0.72;74.65;100444.50;4083480;29;20489;-64
2024/01/19 00:32:46;;;;;;;38.13;23.27;;;;;;;-0.72;74.82;100444.50;4083451;29;20071;-64
2024/01/19 00:34:49;;;;;;;42.47;24.88;;;;;;;-0.68;75.78;100444.72;4093899;29;20044;-66
2024/01/19 00:36:52;;;;;;;37.85;22.60;;;;;;;-0.69;75.67;100442.94;4101673;29;20043;-65
2024/01/19 00:38:55;;;;;;;47.65;26.50;;;;;;;-0.78;75.94;100443.28;4090040;29;20044;-65
2024/01/19 00:40:59;;;;;;;41.45;25.40;;;;;;;-0.69;75.26;100446.34;4079105;28;20401;-65
2024/01/19 00:43:03;;;;;;;41.17;24.00;;;;;;;-0.73;75.77;100447.88;4084843;29;20473;-65
2024/01/19 00:45:06;;;;;;;41.15;23.25;;;;;;;-0.71;75.75;100451.38;4090438;28;20052;-65
2024/01/19 00:47:09;;;;;;;35.15;22.65;;;;;;;-0.71;75.21;100460.72;4088474;29;20651;-65
2024/01/19 00:49:11;;;;;;;39.33;24.00;;;;;;;-0.65;75.55;100460.19;4092672;29;20127;-65
2024/01/19 00:51:17;;;;;;;42.03;25.38;;;;;;;-0.62;74.96;100462.94;4081994;29;20040;-65
2024/01/19 00:53:20;;;;;;;41.27;24.93;;;;;;;-0.62;74.88;100465.50;4088524;29;20413;-64
2024/01/19 00:55:23;;;;;;;42.28;23.90;;;;;;;-0.64;74.50;100457.75;4087817;28;20127;-64
2024/01/19 00:57:27;;;;;;;40.63;25.60;;;;;;;-0.60;74.68;100464.78;4082756;29;20056;-64
2024/01/19 00:59:30;;;;;;;40.60;23.75;;;;;;;-0.60;74.94;100469.91;4092082;29;20067;-65
2024/01/19 01:01:33;;;;;;;41.45;25.05;;;;;;;-0.58;74.88;100470.00;4085437;29;20046;-65
2024/01/19 01:03:36;;;;;;;42.33;26.05;;;;;;;-0.56;75.38;100476.94;4082446;29;20039;-65
2024/01/19 01:05:39;;;;;;;40.92;23.83;;;;;;;-0.55;75.53;100477.81;4089841;29;20130;-65
2024/01/19 01:07:42;;;;;;;38.20;23.58;;;;;;;-0.59;74.65;100474.19;4092918;28;20070;-65
2024/01/19 01:09:45;;;;;;;42.95;24.55;;;;;;;-0.59;75.34;100480.97;4092064;29;20039;-65
2024/01/19 01:11:48;;;;;;;39.83;25.27;;;;;;;-0.62;74.85;100483.34;4084028;29;20082;-65
2024/01/19 01:13:53;;;;;;;39.00;24.40;;;;;;;-0.64;74.73;100483.28;4091815;29;20612;-65
2024/01/19 01:15:56;;;;;;;41.38;24.83;;;;;;;-0.65;75.25;100483.19;4079769;29;20046;-66
2024/01/19 01:17:58;;;;;;;39.60;23.95;;;;;;;-0.63;74.77;100486.69;4092327;28;20450;-66
2024/01/19 01:20:02;;;;;;;39.83;25.50;;;;;;;-0.62;76.10;100485.91;4076783;29;20040;-66
2024/01/19 01:22:06;;;;;;;35.22;22.15;;;;;;;-0.61;74.93;100493.66;4084195;29;20460;-66
2024/01/19 01:24:09;;;;;;;41.63;24.05;;;;;;;-0.57;75.98;100499.81;4092361;29;20544;-66
2024/01/19 01:26:11;;;;;;;41.65;25.33;;;;;;;-0.56;75.96;100507.56;4079923;29;20094;-66
2024/01/19 01:28:15;;;;;;;39.78;25.10;;;;;;;-0.57;76.01;100507.47;4087207;29;20390;-66
2024/01/19 01:30:19;;;;;;;47.65;26.85;;;;;;;-0.55;75.88;100514.44;4086923;28;20032;-66
2024/01/19 01:32:22;;;;;;;39.97;24.45;;;;;;;-0.56;75.74;100527.13;4083628;29;20036;-66
2024/01/19 01:34:24;;;;;;;49.30;26.95;;;;;;;-0.57;76.16;100525.34;4084331;29;20147;-66
2024/01/19 01:36:27;;;;;;;43.03;25.85;;;;;;;-0.57;75.88;100521.16;4083150;29;21067;-66
2024/01/19 01:38:30;;;;;;;46.90;26.80;;;;;;;-0.54;75.58;100530.63;4084195;29;20453;-66
2024/01/19 01:40:33;;;;;;;44.05;26.83;;;;;;;-0.57;75.23;100536.47;4089191;29;20043;-66
2024/01/19 01:42:36;;;;;;;55.28;27.25;;;;;;;-0.62;75.81;100529.31;4082655;29;20071;-66
2024/01/19 01:44:39;;;;;;;41.60;25.95;;;;;;;-0.66;75.27;100540.13;4092112;29;20067;-66
2024/01/19 01:46:44;;;;;;;38.30;24.20;;;;;;;-0.68;74.62;100546.81;4104629;23;20494;-67
2024/01/19 01:48:51;;;;;;;44.15;25.80;;;;;;;-0.71;74.85;100548.38;4082945;29;20050;-67
2024/01/19 01:50:55;;;;;;;38.95;24.60;;;;;;;-0.71;75.45;100550.94;4072177;29;20060;-66
2024/01/19 01:53:00;;;;;;;44.25;25.05;;;;;;;-0.75;75.40;100555.75;4084037;29;20051;-66
2024/01/19 01:55:03;;;;;;;45.55;26.35;;;;;;;-0.80;74.77;100563.16;4083580;29;20040;-67
2024/01/19 01:57:07;;;;;;;47.45;25.63;;;;;;;-0.81;74.34;100566.47;4082309;29;20039;-67
2024/01/19 01:59:09;;;;;;;43.35;24.98;;;;;;;-0.88;74.57;100570.34;4083447;29;20051;-67
2024/01/19 02:01:12;;;;;;;36.85;23.35;;;;;;;-0.87;74.52;100578.88;4082798;29;20079;-67
2024/01/19 02:03:17;;;;;;;39.17;24.77;;;;;;;-0.84;75.15;100580.72;4082778;29;20119;-67
2024/01/19 02:05:20;;;;;;;36.25;22.60;;;;;;;-0.87;75.36;100583.97;4084556;29;20468;-67
2024/01/19 02:07:22;;;;;;;38.22;22.88;;;;;;;-0.85;75.85;100589.16;4084811;29;20031;-67
2024/01/19 02:09:25;;;;;;;36.92;21.55;;;;;;;-0.89;75.25;100593.22;4084689;29;20130;-67
2024/01/19 02:11:28;;;;;;;33.40;21.05;;;;;;;-0.90;75.62;100594.00;4082981;29;20067;-67
2024/01/19 02:13:31;;;;;;;37.20;21.85;;;;;;;-0.93;75.74;100597.22;4082327;29;20127;-67
2024/01/19 02:15:35;;;;;;;33.83;19.35;;;;;;;-0.94;75.13;100602.25;4080089;29;20039;-67
2024/01/19 02:17:37;;;;;;;36.92;22.02;;;;;;;-0.95;75.92;100597.91;4083580;29;20106;-66
2024/01/19 02:19:41;;;;;;;34.10;20.13;;;;;;;-0.93;75.14;100601.47;4083416;29;20557;-66
2024/01/19 02:21:45;;;;;;;34.30;19.35;;;;;;;-0.94;75.57;100605.66;4082363;29;20083;-66
2024/01/19 02:23:54;;;;;;;29.45;17.60;;;;;;;-0.94;75.54;100599.69;4083113;29;20126;-67
2024/01/19 02:25:58;;;;;;;35.80;21.10;;;;;;;-0.92;75.44;100611.75;4075746;29;20069;-66
2024/01/19 02:28:02;;;;;;;38.83;22.95;;;;;;;-0.96;75.11;100612.34;4083988;29;20036;-66
2024/01/19 02:30:06;;;;;;;38.60;21.38;;;;;;;-0.95;74.74;100603.91;4082434;29;20497;-66
2024/01/19 02:32:09;;;;;;;34.65;20.95;;;;;;;-0.95;75.80;100608.13;4074894;29;20063;-66
2024/01/19 02:34:12;;;;;;;36.03;20.10;;;;;;;-0.92;75.76;100609.22;4081019;29;20047;-66
2024/01/19 02:36:15;;;;;;;32.65;19.70;;;;;;;-0.86;76.02;100612.91;4083075;29;20079;-66
2024/01/19 02:38:18;;;;;;;31.20;20.08;;;;;;;-0.90;75.92;100624.63;4078427;29;20043;-67
2024/01/19 02:40:21;;;;;;;35.22;22.23;;;;;;;-0.90;76.08;100607.63;4082455;29;20541;-67
2024/01/19 02:42:25;;;;;;;37.35;22.15;;;;;;;-0.85;74.89;100609.59;4084174;29;20130;-67
2024/01/19 02:44:28;;;;;;;38.72;20.63;;;;;;;-0.85;74.97;100614.69;4082525;29;20039;-67
2024/01/19 02:46:31;;;;;;;34.10;20.75;;;;;;;-0.82;74.92;100612.31;4079222;29;20043;-66
2024/01/19 02:48:33;;;;;;;30.95;18.77;;;;;;;-0.84;74.99;100614.78;4080720;29;20038;-66
2024/01/19 02:50:36;;;;;;;30.75;18.70;;;;;;;-0.88;75.29;100612.81;4082585;29;20036;-67
2024/01/19 02:52:39;;;;;;;35.30;20.08;;;;;;;-0.90;76.25;100622.94;4081485;29;20048;-67
2024/01/19 02:54:42;;;;;;;32.40;20.13;;;;;;;-0.90;75.40;100619.50;4082278;29;20065;-66
2024/01/19 02:56:45;;;;;;;38.30;21.55;;;;;;;-0.87;75.47;100622.25;4080173;29;20043;-66
2024/01/19 02:58:49;;;;;;;32.42;20.65;;;;;;;-0.86;75.99;100610.38;4083490;29;20039;-66
2024/01/19 03:00:54;;;;;;;33.88;22.15;;;;;;;-0.90;76.56;100622.06;4082032;29;20102;-66
2024/01/19 03:02:57;;;;;;;33.38;21.45;;;;;;;-0.91;76.16;100623.72;4075285;29;20039;-66
2024/01/19 03:05:00;;;;;;;29.20;18.75;;;;;;;-0.89;76.24;100627.25;4082960;29;20130;-66
2024/01/19 03:07:03;;;;;;;29.45;18.95;;;;;;;-0.87;75.28;100632.47;4081702;29;20393;-66
2024/01/19 03:09:06;;;;;;;36.80;20.48;;;;;;;-0.92;75.76;100631.28;4082480;29;20095;-66
2024/01/19 03:11:08;;;;;;;31.90;19.73;;;;;;;-0.88;76.23;100635.78;4081709;29;20067;-66
2024/01/19 03:13:11;;;;;;;31.35;19.17;;;;;;;-0.90;76.31;100638.25;4080441;29;20048;-66
2024/01/19 03:15:15;;;;;;;33.50;19.85;;;;;;;-0.90;75.55;100642.47;4081437;29;20364;-66
2024/01/19 03:17:19;;;;;;;30.50;17.90;;;;;;;-0.89;76.16;100645.13;4082786;29;20043;-66
2024/01/19 03:19:22;;;;;;;32.40;18.63;;;;;;;-0.91;75.91;100639.03;4080067;29;20099;-66
2024/01/19 03:21:25;;;;;;;35.72;19.67;;;;;;;-0.93;75.74;100637.19;4081887;29;20039;-67
2024/01/19 03:23:27;;;;;;;34.90;20.95;;;;;;;-0.96;75.13;100640.41;4079249;29;20032;-67
2024/01/19 03:25:30;;;;;;;33.13;18.52;;;;;;;-1.00;75.41;100646.09;4082297;29;20477;-66
2024/01/19 03:27:33;;;;;;;35.72;19.83;;;;;;;-1.08;74.63;100658.38;4077878;29;20485;-66
2024/01/19 03:29:36;;;;;;;34.20;19.20;;;;;;;-1.10;74.69;100659.94;4082161;29;20091;-67
2024/01/19 03:31:39;;;;;;;30.30;17.63;;;;;;;-1.06;75.61;100654.25;4080319;29;20040;-67
2024/01/19 03:33:42;;;;;;;39.85;20.05;;;;;;;-1.06;74.31;100649.16;4076659;29;20050;-67
2024/01/19 03:35:45;;;;;;;30.27;16.52;;;;;;;-1.09;74.63;100648.97;4082998;29;20057;-67
2024/01/19 03:37:48;;;;;;;27.25;16.95;;;;;;;-1.07;74.48;100662.72;4080038;29;20039;-67
2024/01/19 03:39:50;;;;;;;25.88;16.52;;;;;;;-1.12;74.50;100666.63;4082362;29;20114;-67
2024/01/19 03:41:53;;;;;;;29.30;16.65;;;;;;;-1.09;74.82;100659.16;4079202;29;20059;-67
2024/01/19 03:43:55;;;;;;;33.97;18.85;;;;;;;-1.14;74.48;100662.19;4073210;29;20134;-67
2024/01/19 03:45:59;;;;;;;26.58;17.00;;;;;;;-1.16;74.33;100667.22;4080438;29;20044;-67
2024/01/19 03:48:03;;;;;;;33.90;18.63;;;;;;;-1.12;75.57;100666.63;4083327;29;20401;-67
2024/01/19 03:50:08;;;;;;;34.00;18.25;;;;;;;-1.10;75.75;100670.16;4083048;29;20130;-67
2024/01/19 03:52:11;;;;;;;;;;;;;;;-1.16;75.78;100674.00;4082865;29;20063;-68
2024/01/19 03:54:14;;;;;;;27.80;16.92;;;;;;;-1.13;75.41;100671.63;4082218;29;20018;-67
2024/01/19 03:56:17;;;;;;;31.92;18.10;;;;;;;-1.13;74.91;100669.06;4080547;29;20039;-67
2024/01/19 03:58:20;;;;;;;36.50;18.30;;;;;;;-1.13;74.79;100664.84;4079092;29;20476;-67
2024/01/19 04:00:23;;;;;;;27.92;17.75;;;;;;;-1.14;74.36;100668.22;4083069;29;20048;-66
2024/01/19 04:02:26;;;;;;;27.58;17.38;;;;;;;-1.16;74.71;100668.88;4082009;29;20047;-66
2024/01/19 04:04:30;;;;;;;29.25;16.85;;;;;;;-1.17;74.64;100672.22;4083110;29;20036;-66
2024/01/19 04:06:33;;;;;;;30.73;17.83;;;;;;;-1.23;74.29;100673.59;4081917;29;20071;-67
2024/01/19 04:08:37;;;;;;;31.70;16.58;;;;;;;-1.30;74.56;100678.19;4082985;29;20036;-67
2024/01/19 04:10:40;;;;;;;27.98;17.02;;;;;;;-1.35;75.21;100687.22;4082150;29;20047;-68
2024/01/19 04:12:43;;;;;;;32.25;17.77;;;;;;;-1.35;75.01;100685.53;4081910;29;20039;-67
2024/01/19 04:14:46;;;;;;;29.13;17.10;;;;;;;-1.31;75.59;100681.53;4083173;29;20050;-67
2024/01/19 04:16:49;;;;;;;25.83;16.73;;;;;;;-1.25;74.50;100689.56;4083205;29;20044;-67
2024/01/19 04:18:52;;;;;;;27.92;16.30;;;;;;;-1.24;74.20;100681.16;4083208;29;20040;-67
2024/01/19 04:20:57;;;;;;;28.85;16.90;;;;;;;-1.29;75.45;100688.47;4083169;29;20098;-67
2024/01/19 04:23:00;;;;;;;31.45;16.60;;;;;;;-1.32;75.09;100687.41;4082312;29;20040;-67
2024/01/19 04:25:02;;;;;;;28.88;17.77;;;;;;;-1.34;73.87;100683.84;4083192;29;20051;-67
2024/01/19 04:27:05;;;;;;;27.80;16.65;;;;;;;-1.35;74.29;100689.75;4082178;29;20052;-67
2024/01/19 04:29:07;;;;;;;27.15;16.67;;;;;;;-1.34;74.12;100689.84;4064463;29;20063;-67
2024/01/19 04:31:10;;;;;;;24.98;14.98;;;;;;;-1.35;74.42;100698.28;4074853;29;20074;-66
2024/01/19 04:33:13;;;;;;;27.58;16.95;;;;;;;-1.34;74.99;100699.16;4080388;29;20050;-67
2024/01/19 04:35:15;;;;;;;26.83;17.30;;;;;;;-1.28;74.10;100699.59;4080939;29;20040;-67
2024/01/19 04:37:19;;;;;;;26.65;17.45;;;;;;;-1.33;73.79;100706.03;4082030;29;20091;-67
2024/01/19 04:39:22;;;;;;;30.02;17.90;;;;;;;-1.42;73.47;100709.75;4077815;29;20082;-67
2024/01/19 04:41:25;;;;;;;26.60;16.20;;;;;;;-1.46;74.32;100709.44;4080965;29;20043;-67
2024/01/19 04:43:27;;;;;;;29.67;17.40;;;;;;;-1.51;74.46;100709.13;4080089;29;20051;-66
2024/01/19 04:45:30;;;;;;;27.83;16.55;;;;;;;-1.50;74.56;100713.47;4082279;29;20043;-67
2024/01/19 04:47:33;;;;;;;27.83;16.65;;;;;;;-1.48;74.58;100708.47;4083519;29;20048;-67
2024/01/19 04:49:36;;;;;;;29.73;16.80;;;;;;;-1.49;73.21;100720.34;4084856;29;20043;-67
2024/01/19 04:51:38;;;;;;;25.65;15.82;;;;;;;-1.50;73.58;100717.69;4084696;29;20541;-66
2024/01/19 04:53:43;;;;;;;27.58;15.05;;;;;;;-1.54;72.85;100719.13;4084662;29;20035;-67
2024/01/19 04:55:46;;;;;;;31.92;18.10;;;;;;;-1.68;73.28;100723.31;4083650;29;20035;-67
2024/01/19 04:57:48;;;;;;;30.45;18.88;;;;;;;-1.72;73.48;100718.78;4083743;29;20044;-67
2024/01/19 04:59:51;;;;;;;27.45;15.73;;;;;;;-1.71;73.26;100725.63;4081972;29;20046;-67
2024/01/19 05:01:54;;;;;;;28.25;15.70;;;;;;;-1.73;73.90;100723.78;4082140;29;20044;-67
2024/01/19 05:03:56;;;;;;;31.08;17.10;;;;;;;-1.72;74.54;100728.97;4084326;29;20070;-67
2024/01/19 05:05:59;;;;;;;26.40;16.75;;;;;;;-1.71;73.89;100737.50;4085087;29;20393;-67
2024/01/19 05:08:04;;;;;;;29.33;17.75;;;;;;;-1.72;74.67;100739.19;4084473;29;20106;-66
2024/01/19 05:10:10;;;;;;;29.15;16.42;;;;;;;-1.76;74.27;100737.19;4085429;29;20477;-67
2024/01/19 05:12:12;;;;;;;28.80;16.15;;;;;;;-1.80;74.53;100745.41;4082086;29;20079;-67
2024/01/19 05:14:15;;;;;;;36.33;16.75;;;;;;;-1.80;74.25;100755.59;4083837;29;20110;-66
2024/01/19 05:16:18;;;;;;;30.65;17.50;;;;;;;-1.77;73.63;100755.81;4083380;29;20122;-66
2024/01/19 05:18:22;;;;;;;31.10;17.85;;;;;;;-1.81;74.24;100761.47;4083281;29;20126;-66
2024/01/19 05:20:25;;;;;;;27.35;17.73;;;;;;;-1.83;74.25;100765.59;4084640;29;20139;-66
2024/01/19 05:22:28;;;;;;;27.70;16.80;;;;;;;-1.86;73.73;100763.72;4082101;29;20510;-67
2024/01/19 05:24:31;;;;;;;29.17;16.73;;;;;;;-1.85;73.38;100765.47;4085245;29;20040;-67
2024/01/19 05:26:35;;;;;;;26.60;16.27;;;;;;;-1.87;73.34;100768.69;4083662;29;20043;-66
2024/01/19 05:28:38;;;;;;;30.50;17.15;;;;;;;-1.89;73.82;100768.59;4083302;29;20410;-67
2024/01/19 05:30:41;;;;;;;30.75;17.17;;;;;;;-1.87;73.94;100768.69;4081706;29;20091;-67
2024/01/19 05:32:44;;;;;;;24.30;16.02;;;;;;;-1.92;73.52;100782.81;4082659;29;20040;-67
2024/01/19 05:34:47;;;;;;;27.30;16.95;;;;;;;-1.97;73.54;100782.44;4093782;28;20139;-66
2024/01/19 05:36:50;;;;;;;26.55;15.80;;;;;;;-1.96;73.47;100781.69;4084461;29;20474;-66
2024/01/19 05:38:53;;;;;;;34.58;18.77;;;;;;;-1.96;74.35;100784.22;4083332;29;20466;-66
2024/01/19 05:40:56;;;;;;;28.15;17.15;;;;;;;-1.93;73.97;100781.91;4081761;29;20039;-67
2024/01/19 05:43:00;;;;;;;30.00;18.50;;;;;;;-1.87;73.42;100784.88;4082913;29;20074;-67
2024/01/19 05:45:03;;;;;;;29.55;15.50;;;;;;;-1.89;73.58;100790.66;4082330;29;20067;-65
2024/01/19 05:47:06;;;;;;;27.85;17.27;;;;;;;-1.90;73.65;100794.84;4084807;29;20042;-66
2024/01/19 05:49:10;;;;;;;27.38;16.48;;;;;;;-1.96;73.58;100797.88;4083117;29;20031;-66
2024/01/19 05:51:13;;;;;;;26.52;17.20;;;;;;;-1.94;73.43;100800.53;4081863;29;20047;-66
2024/01/19 05:53:15;;;;;;;29.98;17.58;;;;;;;-1.95;73.24;100798.75;4081947;29;20537;-66
2024/01/19 05:55:18;;;;;;;26.63;16.13;;;;;;;-1.98;74.11;100806.19;4083785;29;20044;-66
2024/01/19 05:57:21;;;;;;;26.20;16.10;;;;;;;-2.00;74.29;100811.16;4082956;29;21125;-66
2024/01/19 05:59:25;;;;;;;28.15;16.05;;;;;;;-2.01;74.23;100803.44;4082869;29;20063;-66
2024/01/19 06:01:28;;;;;;;32.30;16.48;;;;;;;-2.04;74.00;100809.19;4080434;29;20044;-66
2024/01/19 06:03:33;;;;;;;24.63;15.82;;;;;;;-2.00;73.46;100812.81;4083002;29;20043;-67
2024/01/19 06:05:36;;;;;;;;;;;;;;;-2.13;73.89;100818.72;4082885;29;20035;-67
2024/01/19 06:07:41;;;;;;;30.13;16.08;;;;;;;-2.14;74.15;100820.38;4081969;29;19923;-67
2024/01/19 06:09:44;;;;;;;30.10;17.17;;;;;;;-2.08;73.70;100819.94;4082539;29;20046;-66
2024/01/19 06:11:47;;;;;;;33.25;17.25;;;;;;;-2.07;73.75;100828.44;4078992;29;20481;-66
2024/01/19 06:13:51;;;;;;;34.05;17.58;;;;;;;-2.09;73.48;100835.97;4077132;29;20086;-66
2024/01/19 06:15:55;;;;;;;29.23;18.23;;;;;;;-2.11;73.60;100835.88;4080823;29;20052;-66
2024/01/19 06:17:57;;;;;;;30.92;17.67;;;;;;;-2.13;72.93;100837.44;4083352;29;20454;-66
2024/01/19 06:20:02;;;;;;;27.20;16.88;;;;;;;-2.15;73.85;100833.00;4084587;29;20039;-66
2024/01/19 06:22:05;;;;;;;32.20;18.67;;;;;;;-2.15;73.27;100836.41;4087379;29;20135;-66
2024/01/19 06:24:08;;;;;;;32.38;17.08;;;;;;;-2.13;73.47;100837.44;4082300;29;20454;-66
2024/01/19 06:26:12;;;;;;;26.75;18.58;;;;;;;-2.12;73.63;100840.84;4080627;29;20394;-67
2024/01/19 06:28:15;;;;;;;26.27;17.23;;;;;;;-2.14;73.27;100843.28;4080568;29;20387;-67
2024/01/19 06:30:18;;;;;;;27.85;18.45;;;;;;;-2.17;73.19;100847.31;4077525;29;20044;-67
2024/01/19 06:32:24;;;;;;;35.78;19.73;;;;;;;-2.21;73.49;100855.50;4083476;29;20099;-68
2024/01/19 06:34:26;;;;;;;28.40;18.63;;;;;;;-2.22;72.75;100862.25;4081174;29;20533;-67
2024/01/19 06:36:29;;;;;;;31.83;19.30;;;;;;;-2.23;73.52;100868.13;4076829;29;20099;-67
2024/01/19 06:38:32;;;;;;;33.78;21.13;;;;;;;-2.26;73.67;100867.00;4082091;29;20063;-67
2024/01/19 06:40:36;;;;;;;32.30;19.75;;;;;;;-2.26;73.67;100874.63;4083983;29;20038;-66
2024/01/19 06:42:39;;;;;;;28.85;18.45;;;;;;;-2.27;72.92;100889.03;4081899;29;20398;-66
2024/01/19 06:44:43;;;;;;;33.00;20.23;;;;;;;-2.29;73.66;100890.59;4083146;29;20036;-66
2024/01/19 06:46:46;;;;;;;29.40;18.25;;;;;;;-2.24;73.96;100902.00;4082976;29;20133;-66
2024/01/19 06:48:51;;;;;;;34.33;20.27;;;;;;;-2.20;73.25;100904.00;4066000;29;20040;-65
2024/01/19 06:50:54;;;;;;;34.47;19.85;;;;;;;-2.22;73.74;100905.56;4082589;29;20043;-66
2024/01/19 06:52:59;;;;;;;41.25;23.02;;;;;;;-2.17;73.58;100910.97;4080838;29;20067;-65
2024/01/19 06:55:01;;;;;;;38.35;22.63;;;;;;;-2.15;73.46;100904.31;4082578;29;20146;-66
2024/01/19 06:57:04;;;;;;;43.67;26.02;;;;;;;-2.16;74.37;100911.09;4075687;29;20135;-65
2024/01/19 06:59:07;;;;;;;39.58;23.20;;;;;;;-2.16;73.56;100918.72;4083211;29;20039;-66
2024/01/19 07:01:11;;;;;;;39.10;23.92;;;;;;;-2.16;73.99;100925.47;4083320;29;20075;-66
2024/01/19 07:03:14;;;;;;;38.45;24.45;;;;;;;-2.15;74.11;100923.03;4065546;29;20088;-66
2024/01/19 07:05:19;;;;;;;49.40;26.73;;;;;;;-2.15;73.79;100923.03;4082533;29;20095;-66
2024/01/19 07:07:22;;;;;;;43.15;26.38;;;;;;;-2.16;72.92;100923.81;4083577;29;20780;-66
2024/01/19 07:09:26;;;;;;;45.40;25.85;;;;;;;-2.16;73.52;100930.56;4082009;29;20086;-66
2024/01/19 07:11:30;;;;;;;38.22;21.35;;;;;;;-2.15;73.81;100930.66;4080995;29;20094;-66
2024/01/19 07:13:33;;;;;;;35.13;21.63;;;;;;;-2.11;73.07;100936.88;4082616;29;20122;-65
2024/01/19 07:15:36;;;;;;;39.90;21.80;;;;;;;-2.12;73.90;100940.19;4083613;29;20087;-66
2024/01/19 07:17:39;;;;;;;38.00;22.15;;;;;;;-2.14;73.44;100947.72;4081409;29;20067;-65
2024/01/19 07:19:42;;;;;;;38.63;21.15;;;;;;;-2.11;73.28;100950.50;4082144;29;20047;-66
2024/01/19 07:21:47;;;;;;;34.17;20.58;;;;;;;-2.10;73.81;100951.41;4080251;29;20498;-66
2024/01/19 07:23:50;;;;;;;32.65;19.88;;;;;;;-2.12;73.41;100953.84;4082226;29;20043;-66
2024/01/19 07:25:52;;;;;;;34.20;20.45;;;;;;;-2.17;72.79;100952.59;4080108;29;20046;-65
2024/01/19 07:27:55;;;;;;;36.25;20.63;;;;;;;-2.22;73.43;100947.94;4081410;29;20154;-66
2024/01/19 07:29:58;;;;;;;34.10;20.98;;;;;;;-2.23;72.91;100957.25;4081776;29;20039;-65
2024/01/19 07:32:01;;;;;;;32.65;19.38;;;;;;;-2.22;73.19;100960.69;4082940;29;20047;-66
2024/01/19 07:34:05;;;;;;;33.33;18.45;;;;;;;-2.24;72.94;100970.75;4080677;29;20091;-67
2024/01/19 07:36:09;;;;;;;34.28;19.27;;;;;;;-2.33;73.28;100968.41;4083317;29;20050;-66
2024/01/19 07:38:13;;;;;;;33.75;19.17;;;;;;;-2.33;73.09;100975.19;4079701;29;20044;-65
2024/01/19 07:40:16;;;;;;;25.98;17.17;;;;;;;-2.37;72.84;100974.03;4082267;29;20278;-66
2024/01/19 07:42:19;;;;;;;32.25;18.25;;;;;;;-2.35;73.29;100981.78;4082405;29;20407;-65
2024/01/19 07:44:22;;;;;;;35.25;19.48;;;;;;;-2.37;73.10;100985.91;4082649;29;20478;-65
2024/01/19 07:46:24;;;;;;;31.73;19.10;;;;;;;-2.35;73.24;100985.25;4082955;29;20052;-66
2024/01/19 07:48:27;;;;;;;32.25;18.88;;;;;;;-2.34;73.62;100983.56;4082802;29;20040;-65
2024/01/19 07:50:30;;;;;;;28.92;17.38;;;;;;;-2.29;73.17;100989.91;4083227;29;20458;-65
2024/01/19 07:52:33;;;;;;;26.73;16.33;;;;;;;-2.25;72.88;100991.00;4082902;29;20127;-66
2024/01/19 07:54:38;;;;;;;30.08;16.55;;;;;;;-2.22;73.53;100992.16;4081959;29;20059;-66
2024/01/19 07:56:40;;;;;;;30.52;17.80;;;;;;;-2.22;73.10;100998.88;4080962;29;20477;-66
2024/01/19 07:58:44;;;;;;;29.00;17.20;;;;;;;-2.21;72.87;100993.91;4081240;29;20071;-66
2024/01/19 08:00:47;;;;;;;29.60;18.27;;;;;;;-2.20;73.17;101005.88;4075924;29;20040;-66
2024/01/19 08:02:50;;;;;;;28.65;18.40;;;;;;;-2.16;73.12;101006.97;4081690;29;20474;-66
2024/01/19 08:04:52;;;;;;;33.63;17.63;;;;;;;-2.18;73.10;101008.53;4082067;29;20197;-67
2024/01/19 08:06:55;;;;;;;25.10;16.23;;;;;;;-2.15;72.36;101019.81;4079901;29;20131;-67
2024/01/19 08:08:58;;;;;;;29.65;17.05;;;;;;;-2.11;72.54;101018.41;4083152;29;20044;-66
2024/01/19 08:11:03;;;;;;;28.60;16.63;;;;;;;-2.16;72.69;101028.25;4081823;29;20040;-66
2024/01/19 08:13:05;;;;;;;28.30;18.23;;;;;;;-2.20;72.08;101030.47;4078254;29;20042;-67
2024/01/19 08:15:10;;;;;;;30.55;16.83;;;;;;;-2.23;72.73;101033.66;4068352;29;20040;-67
2024/01/19 08:17:12;;;;;;;27.98;16.45;;;;;;;-2.25;72.65;101035.19;4071007;29;20498;-67
2024/01/19 08:19:15;;;;;;;29.52;16.92;;;;;;;-2.27;73.21;101036.75;4075827;29;20047;-67
2024/01/19 08:21:17;;;;;;;25.05;15.68;;;;;;;-2.27;73.39;101041.84;4082795;29;20454;-66
2024/01/19 08:23:20;;;;;;;28.00;16.67;;;;;;;-2.27;73.50;101034.19;4082282;29;20067;-67
2024/01/19 08:25:23;;;;;;;30.27;16.45;;;;;;;-2.20;73.22;101038.09;4086895;29;20047;-67
2024/01/19 08:27:27;;;;;;;30.45;18.75;;;;;;;-2.29;73.84;101041.72;4085601;29;20094;-67
2024/01/19 08:29:32;;;;;;;33.72;18.88;;;;;;;-2.22;73.51;101047.25;4085705;29;20079;-67
2024/01/19 08:31:35;;;;;;;33.65;19.98;;;;;;;-2.21;73.55;101049.94;4085245;29;20071;-67
2024/01/19 08:33:38;;;;;;;29.58;17.98;;;;;;;-2.07;73.95;101045.88;4085597;29;20115;-67
2024/01/19 08:35:40;;;;;;;30.75;18.98;;;;;;;-1.92;73.21;101043.56;4085674;29;20553;-66
2024/01/19 08:37:43;;;;;;;32.67;20.58;;;;;;;-2.04;73.59;101047.78;4083823;29;20050;-67
2024/01/19 08:39:45;;;;;;;28.98;17.35;;;;;;;-2.08;74.39;101048.31;4081611;29;20039;-67
2024/01/19 08:41:48;;;;;;;32.90;18.52;;;;;;;-1.96;74.05;101051.75;4079780;29;20039;-68
2024/01/19 08:43:53;;;;;;;30.27;17.88;;;;;;;-1.92;74.30;101063.06;4085279;29;20064;-66
2024/01/19 08:45:56;;;;;;;34.10;19.92;;;;;;;-1.88;73.76;101071.06;4083699;29;20453;-66
2024/01/19 08:47:58;;;;;;;36.63;23.20;;;;;;;-1.88;73.73;101075.25;4077455;29;20093;-67
2024/01/19 08:50:02;;;;;;;36.08;22.90;;;;;;;-1.87;73.19;101071.94;4071064;29;20103;-67
2024/01/19 08:52:06;;;;;;;37.40;23.15;;;;;;;-1.89;74.51;101079.47;4081937;29;20460;-69
2024/01/19 08:54:08;;;;;;;33.10;21.92;;;;;;;-1.86;74.59;101078.81;4084587;29;20040;-71
2024/01/19 08:56:11;;;;;;;32.88;20.55;;;;;;;-1.83;74.86;101079.03;4084415;29;20410;-72
2024/01/19 08:58:14;;;;;;;27.27;18.58;;;;;;;-1.81;73.98;101086.03;4083155;29;20123;-66
2024/01/19 09:00:19;;;;;;;28.83;19.60;;;;;;;-1.76;74.35;101091.47;4083290;29;20087;-67
2024/01/19 09:02:21;;;;;;;30.17;19.08;;;;;;;-1.70;74.63;101096.13;4081918;29;20126;-66
2024/01/19 09:04:28;;;;;;;32.95;19.25;;;;;;;-1.59;74.28;101097.81;4084751;29;20039;-67
2024/01/19 09:06:31;;;;;;;27.88;17.98;;;;;;;-1.60;74.94;101108.78;4081044;29;20105;-65
2024/01/19 09:08:34;;;;;;;;;;;;;;;-1.62;74.47;101116.31;4089036;29;20588;-69
2024/01/19 09:10:37;;;;;;;27.58;16.80;;;;;;;-1.53;74.91;101115.19;4075087;29;19956;-64
2024/01/19 09:12:40;;;;;;;26.42;17.17;;;;;;;-1.49;75.02;101128.31;4073675;29;20135;-64
2024/01/19 09:14:43;;;;;;;27.15;17.10;;;;;;;-1.41;74.94;101122.06;4079061;29;20589;-63
2024/01/19 09:16:48;;;;;;;23.50;15.40;;;;;;;-1.33;74.71;101119.19;4076455;29;20035;-63
2024/01/19 09:18:51;;;;;;;24.85;15.48;;;;;;;-1.23;74.05;101131.84;4077695;29;20075;-64
2024/01/19 09:20:54;;;;;;;31.15;17.40;;;;;;;-1.30;74.36;101125.44;4078302;29;20040;-64